Thunder radar more information blitzortung!


Rain radar more information rain snow radar



Rapports METAR proximité

   
EHVK - Volkel Rnlafb, Netherlands
Distance: SO 18 km
Mise à jour: 24-07-2021 00:25
Nuageux  
Nuageux  
   Vent: NE 11.1 km/h
Vent: NE 11.1 km/h
Température: 16°C
Point de rosée: 13°C
Humidité: 83%
Baromètre: 1013 hPa
Nuageux: Nuageux
visibilité: More than 10 km
Détails des nuages: Nuageux 31000 ft
EHVK 232225Z AUTO 05006KT 9999 BKN310 16/13 Q1013 BLU
EDLV - Niederrhein, Germany
Distance: SE 25 km
Mise à jour: 23-07-2021 23:50
Claires  
Claires  
   Vent: NE 7.4 km/h
Vent: NE 7.4 km/h
Température: 17°C
Point de rosée: 14°C
Humidité: 83%
Baromètre: 1013 hPa
visibilité: More than 10 km
Détails des nuages: Claires
EDLV 232150Z 04004KT 360V080 CAVOK 17/14 Q1013
EHDL - Deelen Rnlafb, Netherlands
Distance: N 35 km
Mise à jour: 24-07-2021 00:25
Nuageux  
Nuageux  
   Vent: ENE 14.8 km/h
Vent: ENE 14.8 km/h
Température: 16°C
Point de rosée: 13°C
Humidité: 83%
Baromètre: 1013 hPa
Nuageux: Nuageux
visibilité: More than 10 km
Détails des nuages: Nuageux 31000 ft
EHDL 232225Z AUTO 06008KT 360V120 9999 OVC310 16/13 Q1013 BLU
EHEH - Eindhoven Rnlafb, Netherlands
Distance: SO 48 km
Mise à jour: 24-07-2021 00:25
Nuageux  
Nuageux  
   Vent: NE 14.8 km/h
Vent: NE 14.8 km/h
Température: 18°C
Point de rosée: 14°C
Humidité: 78%
Baromètre: 1013 hPa
Nuageux: Nuageux
visibilité: More than 10 km
Détails des nuages: Nuageux 25000 ft
EHEH 232225Z AUTO 05008KT 020V080 9999 OVC250 18/14 Q1013 BLU
EHGR - Gilze-Rijen Rnla, Netherlands
Distance: OSO 70 km
Mise à jour: 24-07-2021 00:25
Nuageux  
Nuageux  
   Vent: NE 13 km/h
Vent: NE 13 km/h
Température: 17°C
Point de rosée: 13°C
Humidité: 77%
Baromètre: 1013 hPa
Nuageux: Nuageux
visibilité: More than 10 km
Détails des nuages: Nuageux 25000 ft
EHGR 232225Z AUTO 04007KT 360V090 9999 OVC250 17/13 Q1013 BLU
EBBL - Kleine-Brogel(Ba, Belgium
Distance: SSO 71 km
Mise à jour: 24-07-2021 00:25
Claires  
Claires  
   Vent: NE 11.1 km/h
Vent: NE 11.1 km/h
Température: 17°C
Point de rosée: 14°C
Humidité: 83%
Baromètre: 1013 hPa
Nuageux: Claires
visibilité: More than 10 km
Détails des nuages: Claires
EBBL 232225Z AUTO 05006KT 9999 NCD 17/14 Q1013 BLU

Script développé par  Saratoga-weather.org Adapté pour le modèle par  Weerstation Leuven

Vous trouverez notre info météo Également à:

Weather Underground

Équipement que nous utilisons:

Station de Météo
Davis VP2

Programme Météo
Meteobridge

Ordinateur Météo
Apple Imac

Davis VP2

Meteobridge

Apple Imac